Time;durP1;ratioP1;P1;durP2;ratioP2;P2;SDS_P1;SDS_P2;PMS_P1;PMS_P2;Temp;Humidity;BMP_temperature;BMP_pressure;BME280_temperature;BME280_humidity;BME280_pressure;Samples;Min_cycle;Max_cycle;Signal;HPM_P1;HPM_P2
2021/08/08 03:19:50;;;;;;;;;;;;;;;6.91;100.00;98958.38;5020764;28;19940;-87
2021/08/08 03:22:15;;;;;;;;;;;;;;;6.85;100.00;98963.88;5021884;28;19921;-88
2021/08/08 03:24:42;;;;;;;;;;;;;;;6.95;100.00;98958.25;5021815;28;19925;-89
2021/08/08 03:27:07;;;;;;;;;;;;;;;6.86;100.00;98956.81;5021338;28;19972;-88
2021/08/08 03:29:33;;;;;;;;;;;;;;;6.90;100.00;98959.28;5004440;28;19948;-87
2021/08/08 03:31:58;;;;;;;;;;;;;;;7.04;100.00;98974.50;5003678;28;19928;-88
2021/08/08 03:34:23;;;;;;;;;;;;;;;7.01;100.00;98968.53;5020491;28;20011;-89
2021/08/08 03:36:49;;;;;;;;;;;;;;;7.09;100.00;98969.91;5020638;28;20007;-88
2021/08/08 03:39:14;;;;;;;;;;;;;;;7.07;100.00;98977.03;5020849;28;19949;-89
2021/08/08 03:41:39;;;;;;;;;;;;;;;7.00;100.00;98977.34;5020905;28;19987;-90
2021/08/08 03:44:05;;;;;;;;;;;;;;;7.04;100.00;98985.06;5003311;28;20240;-89
2021/08/08 03:46:30;;;;;;;;;;;;;;;7.02;100.00;98989.53;5003259;28;19932;-88
2021/08/08 03:48:55;;;;;;;;;;;;;;;7.07;100.00;98995.47;5020567;28;19929;-90
2021/08/08 03:51:21;;;;;;;;;;;;;;;7.18;100.00;99000.31;5003272;28;19953;-91
2021/08/08 03:53:46;;;;;;;;;;;;;;;7.40;100.00;99004.66;5019989;28;20034;-90
2021/08/08 03:56:11;;;;;;;;;;;;;;;7.39;100.00;99002.97;5005701;28;19921;-92
2021/08/08 03:58:37;;;;;;;;;;;;;;;7.36;100.00;99008.38;5005039;28;19975;-91
2021/08/08 04:01:03;;;;;;;;;;;;;;;7.28;100.00;99001.63;5022640;28;20188;-91
2021/08/08 04:03:28;;;;;;;;;;;;;;;7.30;100.00;98998.06;5004165;28;19921;-90
2021/08/08 04:05:54;;;;;;;;;;;;;;;7.31;100.00;99000.66;5021054;28;19948;-92
2021/08/08 04:08:19;;;;;;;;;;;;;;;7.21;100.00;98997.53;5020880;28;19917;-93
2021/08/08 04:10:44;;;;;;;;;;;;;;;7.34;100.00;98997.88;5004955;28;20296;-93
2021/08/08 04:13:10;;;;;;;;;;;;;;;7.84;100.00;99006.31;5015361;28;19943;-91
2021/08/08 04:15:35;;;;;;;;;;;;;;;8.11;100.00;99006.88;5009917;28;20003;-92
2021/08/08 04:18:00;;;;;;;;;;;;;;;8.23;100.00;99002.81;5011518;28;19980;-91
2021/08/08 04:20:31;;;;;;;;;;;;;;;8.24;100.00;99008.00;5008211;28;19905;-93
2021/08/08 04:22:56;;;;;;;;;;;;;;;8.41;100.00;99015.16;5011380;28;19926;-93
2021/08/08 04:25:22;;;;;;;;;;;;;;;8.60;100.00;99011.69;5015399;28;19933;-93
2021/08/08 04:27:47;;;;;;;;;;;;;;;8.64;100.00;99016.75;5011884;28;19917;-92
2021/08/08 04:30:12;;;;;;;;;;;;;;;8.50;100.00;99016.53;5007580;28;20000;-92
2021/08/08 04:32:38;;;;;;;;;;;;;;;8.40;100.00;99020.50;5005353;28;19922;-92
2021/08/08 04:35:03;;;;;;;;;;;;;;;8.27;100.00;99028.13;5004504;28;20204;-93
2021/08/08 04:37:28;;;;;;;;;;;;;;;8.16;100.00;99029.47;5021318;28;19921;-90
2021/08/08 04:39:54;;;;;;;;;;;;;;;8.10;100.00;99032.38;5003840;28;19933;-92
2021/08/08 04:42:19;;;;;;;;;;;;;;;8.02;100.00;99028.38;5002881;28;19921;-93
2021/08/08 04:44:44;;;;;;;;;;;;;;;7.97;100.00;99025.94;5002955;28;19922;-91
2021/08/08 04:47:10;;;;;;;;;;;;;;;8.00;100.00;99036.38;5002988;28;20216;-92
2021/08/08 04:49:35;;;;;;;;;;;;;;;7.87;100.00;99035.19;5003507;28;19933;-92
2021/08/08 04:52:02;;;;;;;;;;;;;;;7.84;100.00;99043.25;5002880;28;20005;-91
2021/08/08 04:54:28;;;;;;;;;;;;;;;7.86;100.00;99046.66;5002878;28;20057;-92
2021/08/08 04:56:53;;;;;;;;;;;;;;;7.76;100.00;99049.69;5020582;28;20028;-92
2021/08/08 04:59:19;;;;;;;;;;;;;;;7.77;100.00;99059.31;5003554;28;19922;-92
2021/08/08 05:01:44;;;;;;;;;;;;;;;7.72;100.00;99061.31;5001997;28;19921;-92
2021/08/08 05:04:09;;;;;;;;;;;;;;;7.68;100.00;99065.00;5002302;28;19980;-91
2021/08/08 05:06:35;;;;;;;;;;;;;;;7.74;100.00;99070.00;5001677;28;19933;-90
2021/08/08 12:51:46;;;;;;;;;;;;;;;7.76;100.00;99355.63;5137823;23;19937;-91
2021/08/08 12:54:12;;;;;;;;;;;;;;;7.70;100.00;99362.91;5012163;28;19952;-90
2021/08/08 12:56:37;;;;;;;;;;;;;;;7.63;100.00;99344.69;5020578;28;19968;-90
2021/08/08 12:59:03;;;;;;;;;;;;;;;7.63;100.00;99359.66;5025443;28;20056;-91
2021/08/08 13:01:30;;;;;;;;;;;;;;;7.67;100.00;99355.97;5019093;28;20284;-89
2021/08/08 13:03:55;;;;;;;;;;;;;;;7.69;100.00;99371.72;5017422;28;19934;-89
2021/08/08 13:06:23;;;;;;;;;;;;;;;7.71;100.00;99372.56;5020736;28;20007;-90
2021/08/08 13:08:48;;;;;;;;;;;;;;;7.67;100.00;99382.34;5020163;28;19929;-91
2021/08/08 13:11:14;;;;;;;;;;;;;;;7.63;100.00;99386.03;5014212;28;19932;-90
2021/08/08 13:13:39;;;;;;;;;;;;;;;7.68;100.00;99383.22;5019758;28;20081;-89
2021/08/08 13:16:05;;;;;;;;;;;;;;;7.65;100.00;99384.19;5027305;28;20306;-89
2021/08/08 13:18:30;;;;;;;;;;;;;;;7.64;100.00;99383.31;5022496;28;19932;-89
2021/08/08 13:20:58;;;;;;;;;;;;;;;7.66;100.00;99375.34;5020346;28;20391;-91
2021/08/08 13:23:23;;;;;;;;;;;;;;;7.66;100.00;99378.00;5023165;28;19964;-90
2021/08/08 13:25:48;;;;;;;;;;;;;;;7.67;100.00;99371.78;5024778;28;20315;-89
2021/08/08 13:28:14;;;;;;;;;;;;;;;7.72;100.00;99374.25;5025101;28;20062;-89
2021/08/08 13:30:39;;;;;;;;;;;;;;;7.68;100.00;99377.94;5022877;28;20329;-89
2021/08/08 13:33:05;;;;;;;;;;;;;;;7.75;100.00;99385.53;5023243;28;20106;-89
2021/08/08 13:35:31;;;;;;;;;;;;;;;7.74;100.00;99377.72;5021747;28;19933;-89
2021/08/08 13:37:56;;;;;;;;;;;;;;;7.74;100.00;99378.56;5022321;28;19930;-91
2021/08/08 13:40:21;;;;;;;;;;;;;;;7.78;100.00;99380.16;5024011;28;19949;-90
2021/08/08 13:42:50;;;;;;;;;;;;;;;7.85;100.00;99387.84;5022082;28;19925;-88
2021/08/08 13:45:15;;;;;;;;;;;;;;;7.85;100.00;99379.91;5023011;28;19925;-89
2021/08/08 13:47:40;;;;;;;;;;;;;;;7.84;100.00;99379.06;5023129;28;20007;-89
2021/08/08 13:50:06;;;;;;;;;;;;;;;7.87;100.00;99378.97;5025316;28;19921;-90
2021/08/08 13:52:32;;;;;;;;;;;;;;;7.86;100.00;99363.19;5031985;28;20020;-89
2021/08/08 13:54:58;;;;;;;;;;;;;;;7.95;100.00;99370.75;5042748;28;19929;-91
2021/08/08 13:57:23;;;;;;;;;;;;;;;7.84;100.00;99375.59;5024801;28;19934;-89
2021/08/08 13:59:48;;;;;;;;;;;;;;;7.81;100.00;99374.75;5038612;28;19921;-89
2021/08/08 14:02:14;;;;;;;;;;;;;;;7.86;100.00;99364.03;5021813;28;19948;-89
2021/08/08 14:04:39;;;;;;;;;;;;;;;7.84;100.00;99372.94;5042729;28;19960;-88
2021/08/08 14:07:05;;;;;;;;;;;;;;;7.82;100.00;99370.38;5041688;28;19932;-89
2021/08/08 14:09:30;;;;;;;;;;;;;;;7.93;100.00;99367.28;5042169;28;20012;-90
2021/08/08 14:11:59;;;;;;;;;;;;;;;7.90;100.00;99367.44;5028815;28;20284;-92
2021/08/08 14:14:28;;;;;;;;;;;;;;;7.88;100.00;99366.63;5024285;28;19921;-87
2021/08/08 14:16:54;;;;;;;;;;;;;;;7.87;100.00;99370.19;5045449;28;19933;-89
2021/08/08 14:19:19;;;;;;;;;;;;;;;7.89;100.00;99376.25;5026842;28;20015;-89
2021/08/08 14:21:45;;;;;;;;;;;;;;;7.90;100.00;99363.00;5028106;28;19964;-89
2021/08/08 14:24:10;;;;;;;;;;;;;;;7.89;100.00;99361.28;5027475;28;19949;-89
2021/08/08 14:26:36;;;;;;;;;;;;;;;7.91;100.00;99369.13;5045819;28;20355;-89
2021/08/08 14:29:02;;;;;;;;;;;;;;;7.88;100.00;99364.88;5047996;28;19932;-89
2021/08/08 14:31:27;;;;;;;;;;;;;;;7.88;100.00;99371.91;5028750;28;19937;-89
2021/08/08 14:33:52;;;;;;;;;;;;;;;7.89;100.00;99381.53;5027792;28;20011;-90
2021/08/08 14:36:26;;;;;;;;;;;;;;;7.92;100.00;99381.44;5044947;28;19929;-90
2021/08/08 14:38:51;;;;;;;;;;;;;;;8.06;100.00;99373.84;5026165;28;20008;-89
2021/08/08 14:41:17;;;;;;;;;;;;;;;7.91;100.00;99374.41;5047614;28;19963;-88
2021/08/08 14:43:42;;;;;;;;;;;;;;;7.96;100.00;99375.09;5044907;28;19925;-89
2021/08/08 14:46:10;;;;;;;;;;;;;;;7.94;100.00;99380.44;5028056;28;19925;-90
2021/08/08 14:48:36;;;;;;;;;;;;;;;8.00;100.00;99380.19;5047194;28;19932;-89
2021/08/08 14:51:01;;;;;;;;;;;;;;;7.91;100.00;99384.97;5043354;28;20248;-90
2021/08/08 14:53:26;;;;;;;;;;;;;;;7.92;100.00;99382.28;5043212;28;19983;-89
2021/08/08 14:55:52;;;;;;;;;;;;;;;7.90;100.00;99384.13;5043990;28;19976;-89
2021/08/08 14:58:17;;;;;;;;;;;;;;;7.96;100.00;99381.25;5028042;28;19921;-90
2021/08/08 15:00:43;;;;;;;;;;;;;;;7.96;100.00;99383.00;5023863;28;19933;-90
2021/08/08 15:03:09;;;;;;;;;;;;;;;8.06;100.00;99378.22;5049637;28;20019;-91
2021/08/08 15:05:34;;;;;;;;;;;;;;;7.98;100.00;99376.75;5043156;28;19988;-89
2021/08/08 15:08:06;;;;;;;;;;;;;;;7.93;100.00;99396.31;5043662;28;21429;-88
2021/08/08 15:10:31;;;;;;;;;;;;;;;7.91;100.00;99387.59;5043368;28;19921;-89
2021/08/08 15:12:57;;;;;;;;;;;;;;;7.94;100.00;99384.84;5043787;28;19940;-89
2021/08/08 15:15:23;;;;;;;;;;;;;;;8.02;100.00;99400.41;5047534;28;19931;-88
2021/08/08 15:17:49;;;;;;;;;;;;;;;8.04;100.00;99391.50;5057409;28;20319;-89
2021/08/08 15:20:15;;;;;;;;;;;;;;;7.92;100.00;99391.97;5045982;28;19920;-89
2021/08/08 15:22:40;;;;;;;;;;;;;;;7.93;100.00;99388.41;5026233;28;20046;-88
2021/08/08 15:25:06;;;;;;;;;;;;;;;7.94;100.00;99383.06;5039698;28;19933;-89
2021/08/08 15:27:32;;;;;;;;;;;;;;;7.97;100.00;99379.47;5024364;28;20024;-89
2021/08/08 15:29:58;;;;;;;;;;;;;;;7.95;100.00;99382.16;5023606;28;19921;-89
2021/08/08 15:32:23;;;;;;;;;;;;;;;7.96;100.00;99383.88;5025656;28;20193;-88
2021/08/08 15:34:48;;;;;;;;;;;;;;;7.93;100.00;99393.66;5040840;28;19932;-88
2021/08/08 15:37:21;;;;;;;;;;;;;;;7.89;100.00;99392.94;5025395;28;19980;-89
2021/08/08 15:39:47;;;;;;;;;;;;;;;7.93;100.00;99391.91;5023380;28;19969;-89
2021/08/08 15:42:12;;;;;;;;;;;;;;;7.91;100.00;99392.88;5035956;28;20003;-90
2021/08/08 15:44:37;;;;;;;;;;;;;;;7.87;100.00;99396.56;5038304;28;20073;-88
2021/08/08 15:47:03;;;;;;;;;;;;;;;7.91;100.00;99392.88;5022347;28;20189;-90
2021/08/08 15:49:28;;;;;;;;;;;;;;;7.94;100.00;99392.75;5040584;28;20280;-89
2021/08/08 15:51:53;;;;;;;;;;;;;;;8.00;100.00;99395.19;5039821;28;19931;-88
2021/08/08 15:54:22;;;;;;;;;;;;;;;7.93;100.00;99398.94;5040089;28;20255;-89
2021/08/08 15:56:50;;;;;;;;;;;;;;;7.90;100.00;99409.66;5016655;28;20255;-90
2021/08/08 15:59:16;;;;;;;;;;;;;;;7.91;100.00;99406.06;5033351;28;20308;-88
2021/08/08 16:01:42;;;;;;;;;;;;;;;7.89;100.00;99407.91;5029010;28;19921;-89
2021/08/08 16:04:07;;;;;;;;;;;;;;;7.94;100.00;99400.69;5038467;28;19929;-89
2021/08/08 16:06:37;;;;;;;;;;;;;;;7.99;99.52;99399.59;5042743;28;19921;-88
2021/08/08 16:09:06;;;;;;;;;;;;;;;7.88;100.00;99400.91;5035634;28;20356;-88
2021/08/08 16:11:31;;;;;;;;;;;;;;;7.90;100.00;99412.28;5032888;28;20326;-88
2021/08/08 16:14:09;;;;;;;;;;;;;;;7.98;100.00;99412.84;5012178;28;19929;-90
2021/08/08 16:16:34;;;;;;;;;;;;;;;8.00;100.00;99416.28;5036527;28;19931;-90
2021/08/08 16:19:00;;;;;;;;;;;;;;;7.94;100.00;99427.06;5023661;28;19917;-88
2021/08/08 16:21:34;;;;;;;;;;;;;;;7.87;100.00;99423.81;5019580;28;20204;-87
2021/08/08 16:24:10;;;;;;;;;;;;;;;7.93;99.85;99435.88;5025102;28;20295;-88
2021/08/08 16:26:42;;;;;;;;;;;;;;;7.88;99.02;99432.56;5024763;28;19960;-89
2021/08/08 16:29:10;;;;;;;;;;;;;;;7.86;98.67;99435.25;5037780;28;20434;-89
2021/08/08 16:31:55;;;;;;;;;;;;;;;7.84;98.66;99436.25;5020694;28;19925;-91
2021/08/08 16:36:51;;;;;;;;;;;;;;;8.09;100.00;99441.44;5032739;28;19936;-89
2021/08/08 16:39:16;;;;;;;;;;;;;;;7.91;100.00;99441.22;5029580;28;20019;-90
2021/08/08 16:41:48;;;;;;;;;;;;;;;7.90;99.44;99441.31;5041592;28;19970;-89
2021/08/08 16:44:15;;;;;;;;;;;;;;;7.87;99.36;99441.41;5037049;28;19925;-89
2021/08/08 16:46:45;;;;;;;;;;;;;;;7.80;99.01;99446.03;5041087;28;19932;-90
2021/08/08 16:49:13;;;;;;;;;;;;;;;7.80;98.80;99446.91;5020670;28;19922;-89
2021/08/08 16:51:40;;;;;;;;;;;;;;;7.79;98.80;99450.47;5019404;28;19960;-90
2021/08/08 16:54:08;;;;;;;;;;;;;;;7.82;98.95;99455.63;5050861;28;19917;-89
2021/08/08 16:56:34;;;;;;;;;;;;;;;7.73;99.27;99458.59;5026987;28;20033;-89
2021/08/08 16:59:02;;;;;;;;;;;;;;;8.84;99.01;99450.84;5042194;28;20264;-88
2021/08/08 17:01:48;;;;;;;;;;;;;;;8.24;100.00;99455.84;5040282;28;19932;-88
2021/08/08 17:04:15;;;;;;;;;;;;;;;8.06;100.00;99468.81;5023379;28;19971;-89
2021/08/08 17:06:43;;;;;;;;;;;;;;;7.91;99.63;99464.13;5029733;28;19931;-89
2021/08/08 17:09:13;;;;;;;;;;;;;;;7.90;99.44;99465.03;5021732;28;19940;-89
2021/08/08 17:11:41;;;;;;;;;;;;;;;7.89;99.32;99474.72;5033192;28;20395;-87
2021/08/08 17:14:13;;;;;;;;;;;;;;;7.86;99.25;99466.06;5027126;28;19921;-89
2021/08/08 17:16:42;;;;;;;;;;;;;;;7.82;98.67;99474.09;5023626;28;19936;-88
2021/08/08 17:19:08;;;;;;;;;;;;;;;7.77;98.96;99468.13;5034076;28;20319;-87
2021/08/08 17:21:35;;;;;;;;;;;;;;;7.77;99.09;99481.31;5037655;28;19925;-87
2021/08/08 17:24:08;;;;;;;;;;;;;;;7.80;99.39;99470.66;5028621;28;19948;-86
2021/08/08 17:26:43;;;;;;;;;;;;;;;7.82;98.76;99476.72;5023452;28;21548;-87
2021/08/08 17:29:10;;;;;;;;;;;;;;;7.78;98.52;99483.00;5021598;28;19926;-89
2021/08/08 17:31:44;;;;;;;;;;;;;;;7.76;98.45;99490.13;5024026;28;19984;-86
2021/08/08 17:34:10;;;;;;;;;;;;;;;7.75;98.46;99477.84;5021979;28;20176;-88
2021/08/08 17:36:35;;;;;;;;;;;;;;;7.72;98.78;99485.03;5038980;28;19983;-88
2021/08/08 17:39:05;;;;;;;;;;;;;;;7.75;98.32;99488.41;5039596;28;19921;-86
2021/08/08 17:41:31;;;;;;;;;;;;;;;7.70;98.97;99490.34;5031804;28;20272;-88
2021/08/08 17:43:56;;;;;;;;;;;;;;;7.71;97.97;99484.16;5039665;28;19963;-89
2021/08/08 17:46:22;;;;;;;;;;;;;;;7.69;98.13;99490.41;5039490;28;19985;-88
2021/08/08 17:48:48;;;;;;;;;;;;;;;7.70;98.60;99487.72;5020892;28;19931;-88
2021/08/08 17:51:13;;;;;;;;;;;;;;;7.72;98.44;99488.53;5022796;28;19928;-89
2021/08/08 17:53:38;;;;;;;;;;;;;;;7.75;98.67;99498.94;5037243;28;19983;-89
2021/08/08 17:56:04;;;;;;;;;;;;;;;7.71;98.72;99504.41;5020380;28;19928;-89
2021/08/08 17:58:30;;;;;;;;;;;;;;;7.69;98.99;99499.19;5033521;28;19920;-89
2021/08/08 18:00:56;;;;;;;;;;;;;;;7.64;98.63;99504.63;5023617;28;20307;-89
2021/08/08 18:03:21;;;;;;;;;;;;;;;7.70;99.24;99500.91;5023592;28;20014;-89
2021/08/08 18:05:48;;;;;;;;;;;;;;;7.70;98.97;99497.41;5041841;28;20280;-88
2021/08/08 18:08:20;;;;;;;;;;;;;;;7.72;98.76;99499.09;5027419;28;19974;-88
2021/08/08 18:10:48;;;;;;;;;;;;;;;7.73;99.10;99498.16;5019231;28;20042;-88
2021/08/08 18:13:14;;;;;;;;;;;;;;;7.73;98.99;99502.56;5021566;28;19925;-87
2021/08/08 18:15:39;;;;;;;;;;;;;;;7.69;99.61;99506.22;5042899;28;20074;-88
2021/08/08 18:18:05;;;;;;;;;;;;;;;7.73;99.78;99511.34;5039887;28;20007;-88
2021/08/08 18:20:30;;;;;;;;;;;;;;;7.68;99.88;99496.63;5037822;28;20263;-89
2021/08/08 18:22:55;;;;;;;;;;;;;;;7.69;100.00;99506.22;5026086;28;20296;-89
2021/08/08 18:25:23;;;;;;;;;;;;;;;7.71;100.00;99507.06;5049239;28;20032;-88
2021/08/08 18:27:49;;;;;;;;;;;;;;;7.71;100.00;99525.50;5049156;28;19929;-90
2021/08/08 18:30:14;;;;;;;;;;;;;;;7.71;100.00;99517.59;5027908;28;19928;-88
2021/08/08 18:32:43;;;;;;;;;;;;;;;7.70;100.00;99529.91;5045611;28;19932;-88
2021/08/08 18:35:09;;;;;;;;;;;;;;;7.71;100.00;99536.91;5041245;28;19963;-88
2021/08/08 18:37:34;;;;;;;;;;;;;;;7.72;100.00;99535.13;5037978;28;19953;-89
2021/08/08 18:40:00;;;;;;;;;;;;;;;7.71;100.00;99542.19;5036429;28;20288;-88
2021/08/08 18:42:26;;;;;;;;;;;;;;;7.73;100.00;99539.50;5023683;28;19927;-89
2021/08/08 18:44:51;;;;;;;;;;;;;;;7.68;100.00;99539.66;5051284;28;19925;-89
2021/08/08 18:47:16;;;;;;;;;;;;;;;7.67;100.00;99543.19;5042421;28;19932;-87
2021/08/08 18:49:42;;;;;;;;;;;;;;;7.73;100.00;99543.00;5022289;28;20007;-89
2021/08/08 18:52:08;;;;;;;;;;;;;;;7.70;100.00;99548.38;5020825;28;19935;-89
2021/08/08 18:54:33;;;;;;;;;;;;;;;7.70;100.00;99551.00;5037459;28;19932;-89
2021/08/08 18:56:58;;;;;;;;;;;;;;;7.70;100.00;99548.38;5020985;28;19923;-88
2021/08/08 18:59:24;;;;;;;;;;;;;;;7.68;100.00;99558.13;5030766;28;19916;-87
2021/08/08 19:01:49;;;;;;;;;;;;;;;7.72;100.00;99558.88;5026689;28;20751;-88
2021/08/08 19:04:14;;;;;;;;;;;;;;;7.75;100.00;99556.13;5059160;28;19925;-87
2021/08/08 19:06:40;;;;;;;;;;;;;;;7.74;100.00;99560.53;5026361;28;19924;-89
2021/08/08 19:09:05;;;;;;;;;;;;;;;7.76;100.00;99561.34;5042944;28;19948;-89
2021/08/08 19:11:31;;;;;;;;;;;;;;;7.65;100.00;99568.78;5023831;28;19921;-89
2021/08/08 19:13:57;;;;;;;;;;;;;;;7.71;100.00;99578.25;5024117;28;19921;-87
2021/08/08 19:16:23;;;;;;;;;;;;;;;7.70;100.00;99565.97;5023942;28;19932;-88
2021/08/08 19:18:50;;;;;;;;;;;;;;;7.72;100.00;99569.41;5030818;28;19921;-88
2021/08/08 19:21:17;;;;;;;;;;;;;;;7.71;100.00;99573.84;5042318;28;19929;-87
2021/08/08 19:23:43;;;;;;;;;;;;;;;7.68;100.00;99575.72;5042352;28;20012;-88
2021/08/08 19:26:09;;;;;;;;;;;;;;;7.68;100.00;99581.00;5023839;28;20007;-89
2021/08/08 19:28:35;;;;;;;;;;;;;;;7.71;100.00;99586.19;5043965;28;19921;-88
2021/08/08 19:31:00;;;;;;;;;;;;;;;7.68;100.00;99589.75;5041173;28;19932;-88
2021/08/08 19:33:26;;;;;;;;;;;;;;;7.70;100.00;99595.00;5041207;28;19932;-88
2021/08/08 19:35:51;;;;;;;;;;;;;;;7.68;100.00;99591.56;5047382;28;19921;-88
2021/08/08 19:38:19;;;;;;;;;;;;;;;7.67;100.00;99593.31;5023651;28;19964;-88
2021/08/08 19:40:45;;;;;;;;;;;;;;;7.71;100.00;99587.03;5018407;28;19999;-87
2021/08/08 19:43:10;;;;;;;;;;;;;;;7.69;100.00;99585.34;5044225;28;19966;-87
2021/08/08 19:45:35;;;;;;;;;;;;;;;7.66;100.00;99591.59;5025054;28;19925;-88
2021/08/08 19:48:01;;;;;;;;;;;;;;;7.75;100.00;99591.25;5023977;28;19921;-88
2021/08/08 19:50:27;;;;;;;;;;;;;;;7.64;100.00;99593.41;5023161;28;19971;-89
2021/08/08 19:52:54;;;;;;;;;;;;;;;7.67;100.00;99597.72;5024692;28;19921;-87
2021/08/08 19:55:20;;;;;;;;;;;;;;;7.63;100.00;99602.25;5023372;28;20348;-88
2021/08/08 19:57:45;;;;;;;;;;;;;;;7.66;100.00;99604.78;5028217;28;20010;-89
2021/08/08 20:00:11;;;;;;;;;;;;;;;7.62;100.00;99606.66;5040242;28;19932;-89
2021/08/08 20:02:41;;;;;;;;;;;;;;;7.67;100.00;99608.28;5023232;28;19921;-87
2021/08/08 20:05:07;;;;;;;;;;;;;;;7.62;100.00;99613.69;5040560;28;20021;-89
2021/08/08 20:07:35;;;;;;;;;;;;;;;7.68;100.00;99616.13;5023915;28;20301;-86
2021/08/08 20:10:00;;;;;;;;;;;;;;;7.60;100.00;99624.31;5039991;28;19975;-87
2021/08/08 20:12:25;;;;;;;;;;;;;;;7.64;100.00;99619.78;5022144;28;19925;-87
2021/08/08 20:14:51;;;;;;;;;;;;;;;7.69;100.00;99627.53;5023240;28;20280;-87
2021/08/08 20:17:16;;;;;;;;;;;;;;;7.66;100.00;99633.78;5041094;28;19921;-86
2021/08/08 20:19:41;;;;;;;;;;;;;;;7.64;100.00;99635.59;5027199;28;19925;-88
2021/08/08 20:22:07;;;;;;;;;;;;;;;7.70;99.79;99635.41;5058096;28;20300;-88
2021/08/08 20:24:33;;;;;;;;;;;;;;;7.68;99.88;99637.22;5056327;28;19937;-87
2021/08/08 20:26:59;;;;;;;;;;;;;;;7.66;100.00;99641.72;5022826;28;19921;-88
2021/08/08 20:29:25;;;;;;;;;;;;;;;7.61;99.90;99640.97;5019428;28;19932;-89
2021/08/08 20:31:53;;;;;;;;;;;;;;;7.60;100.00;99641.91;5020588;28;20316;-87
2021/08/08 20:34:19;;;;;;;;;;;;;;;12.26;100.00;99625.78;5039507;28;19925;-85
2021/08/08 20:36:44;;;;;;;;;;;;;;;13.48;100.00;99628.94;5041705;28;20409;-86
2021/08/08 20:39:09;;;;;;;;;;;;;;;14.03;100.00;99625.72;5045919;28;20075;-85
2021/08/08 20:41:35;;;;;;;;;;;;;;;14.39;100.00;99618.22;5041722;28;19927;-85
2021/08/08 20:44:00;;;;;;;;;;;;;;;14.42;100.00;99626.03;5033412;28;19947;-85
2021/08/08 20:46:28;;;;;;;;;;;;;;;14.64;100.00;99628.28;5041093;28;19929;-85
2021/08/08 20:48:54;;;;;;;;;;;;;;;14.76;100.00;99623.97;5051534;28;19978;-86
2021/08/08 20:51:19;;;;;;;;;;;;;;;14.85;100.00;99628.75;5040205;28;19957;-85
2021/08/08 20:53:44;;;;;;;;;;;;;;;15.01;99.81;99626.84;5022877;28;20285;-84
2021/08/08 20:56:10;;;;;;;;;;;;;;;15.01;99.39;99626.84;5044128;28;19995;-84
2021/08/08 20:58:35;;;;;;;;;;;;;;;15.03;98.61;99629.38;5048230;28;20008;-85
2021/08/08 21:01:01;;;;;;;;;;;;;;;15.06;98.13;99630.06;5028258;28;19925;-85
2021/08/08 21:03:26;;;;;;;;;;;;;;;14.90;99.33;99631.97;5049745;28;19952;-84
2021/08/08 21:05:51;;;;;;;;;;;;;;;15.33;97.97;99631.88;5038011;28;19929;-85
2021/08/08 21:08:16;;;;;;;;;;;;;;;13.70;100.00;99634.72;5056403;28;19979;-89
2021/08/08 21:10:42;;;;;;;;;;;;;;;12.44;100.00;99639.88;5042284;28;19920;-88
2021/08/08 21:13:08;;;;;;;;;;;;;;;11.97;100.00;99645.88;5042219;28;19924;-89
2021/08/08 21:15:34;;;;;;;;;;;;;;;11.67;100.00;99646.44;5035931;28;19921;-88
2021/08/08 21:18:00;;;;;;;;;;;;;;;11.58;100.00;99646.88;5039097;28;19932;-89
2021/08/08 21:20:26;;;;;;;;;;;;;;;11.53;100.00;99651.56;5039258;28;19931;-89
2021/08/08 21:22:51;;;;;;;;;;;;;;;11.35;100.00;99655.97;5021868;28;19936;-88
2021/08/08 21:25:17;;;;;;;;;;;;;;;11.08;100.00;99659.84;5039251;28;19925;-90
2021/08/08 21:27:42;;;;;;;;;;;;;;;10.97;100.00;99659.50;5039252;28;19920;-90
2021/08/08 21:30:08;;;;;;;;;;;;;;;10.90;100.00;99658.06;5025508;28;19933;-88
2021/08/08 21:32:33;;;;;;;;;;;;;;;10.94;100.00;99657.00;5044538;28;19963;-88
2021/08/08 21:34:58;;;;;;;;;;;;;;;10.91;100.00;99665.09;5033676;28;19921;-89
2021/08/08 21:37:23;;;;;;;;;;;;;;;11.04;100.00;99662.72;5022172;28;20212;-89
2021/08/08 21:39:49;;;;;;;;;;;;;;;11.23;100.00;99660.94;5024490;28;19921;-88
2021/08/08 21:42:14;;;;;;;;;;;;;;;11.48;100.00;99662.41;5059020;28;19921;-89
2021/08/08 21:44:39;;;;;;;;;;;;;;;11.54;100.00;99658.59;5033220;28;20008;-90
2021/08/08 21:47:05;;;;;;;;;;;;;;;11.62;100.00;99661.72;5039376;28;19968;-89
2021/08/08 21:49:30;;;;;;;;;;;;;;;11.73;100.00;99659.41;5021897;28;19921;-91
2021/08/08 21:51:55;;;;;;;;;;;;;;;11.81;100.00;99657.22;5029119;28;19921;-90
2021/08/08 21:54:21;;;;;;;;;;;;;;;11.87;100.00;99661.38;5041028;28;19968;-88
2021/08/08 21:56:46;;;;;;;;;;;;;;;11.91;100.00;99668.25;5058775;28;19925;-88
2021/08/08 21:59:12;;;;;;;;;;;;;;;11.95;100.00;99663.66;5034754;28;19920;-88
2021/08/08 22:01:37;;;;;;;;;;;;;;;11.96;100.00;99665.38;5038536;28;19921;-90
2021/08/08 22:04:03;;;;;;;;;;;;;;;12.00;100.00;99672.28;5045606;28;19979;-88
2021/08/08 22:06:28;;;;;;;;;;;;;;;12.07;100.00;99668.34;5058316;28;19974;-89
2021/08/08 22:08:53;;;;;;;;;;;;;;;12.11;100.00;99672.59;5059263;28;19931;-88
2021/08/08 22:11:19;;;;;;;;;;;;;;;12.16;100.00;99669.69;5041223;28;20287;-90
2021/08/08 22:13:44;;;;;;;;;;;;;;;12.12;100.00;99661.00;5059703;28;19947;-88
2021/08/08 22:16:09;;;;;;;;;;;;;;;12.20;100.00;99659.78;5058402;28;19921;-88
2021/08/08 22:18:35;;;;;;;;;;;;;;;12.17;100.00;99664.31;5041767;28;20303;-90
2021/08/08 22:21:00;;;;;;;;;;;;;;;12.21;100.00;99670.31;5041022;28;19921;-89
2021/08/08 22:23:26;;;;;;;;;;;;;;;12.24;100.00;99661.31;5041333;28;20208;-88
2021/08/08 22:25:51;;;;;;;;;;;;;;;12.30;100.00;99658.34;5041223;28;19928;-88
2021/08/08 22:28:16;;;;;;;;;;;;;;;12.27;100.00;99658.50;5058543;28;20009;-88
2021/08/08 22:30:42;;;;;;;;;;;;;;;12.31;100.00;99665.38;5020453;28;19921;-88
2021/08/08 22:33:07;;;;;;;;;;;;;;;12.26;100.00;99657.66;5021564;28;20028;-89
2021/08/08 22:35:33;;;;;;;;;;;;;;;12.38;100.00;99657.94;5038487;28;19928;-88
2021/08/08 22:37:58;;;;;;;;;;;;;;;12.33;100.00;99661.72;5034942;28;19928;-88
2021/08/08 22:40:23;;;;;;;;;;;;;;;12.40;100.00;99656.94;5046449;28;19924;-89
2021/08/08 22:42:49;;;;;;;;;;;;;;;12.41;100.00;99666.59;5044715;28;19931;-87
2021/08/08 22:45:14;;;;;;;;;;;;;;;12.57;100.00;99663.16;5056191;28;19972;-88
2021/08/08 22:47:40;;;;;;;;;;;;;;;11.15;100.00;99664.88;5031135;28;19921;-88
2021/08/08 22:50:06;;;;;;;;;;;;;;;9.95;100.00;99663.94;5060764;28;19921;-89
2021/08/08 22:52:31;;;;;;;;;;;;;;;9.42;100.00;99670.53;5039568;28;19972;-89
2021/08/08 22:54:57;;;;;;;;;;;;;;;9.27;100.00;99672.00;5044859;28;19968;-87
2021/08/08 22:57:22;;;;;;;;;;;;;;;8.97;100.00;99675.84;5061435;28;20284;-89
2021/08/08 22:59:47;;;;;;;;;;;;;;;8.86;100.00;99679.75;5060448;28;19925;-87
2021/08/08 23:02:13;;;;;;;;;;;;;;;8.68;100.00;99678.66;5043025;28;19921;-89
2021/08/08 23:04:38;;;;;;;;;;;;;;;8.68;100.00;99688.34;5060178;28;20088;-89
2021/08/08 23:07:03;;;;;;;;;;;;;;;8.55;100.00;99687.91;5037435;28;19929;-88
2021/08/08 23:09:30;;;;;;;;;;;;;;;8.43;100.00;99698.91;5060057;28;19920;-89
2021/08/08 23:11:55;;;;;;;;;;;;;;;8.26;100.00;99694.22;5060901;28;19927;-88
2021/08/08 23:14:20;;;;;;;;;;;;;;;8.21;100.00;99688.22;5048635;28;19921;-87
2021/08/08 23:16:46;;;;;;;;;;;;;;;8.15;100.00;99692.81;5046353;28;19924;-89
2021/08/08 23:19:11;;;;;;;;;;;;;;;8.18;100.00;99690.06;5056246;28;19921;-89
2021/08/08 23:21:36;;;;;;;;;;;;;;;8.12;100.00;99694.69;5041390;28;19921;-88
